»·PEaware :: N197JD KSBD-KEMT

N197JD :: KSBD-KEMT

FLIGHT INFORMATION

Flight Status: Arrived
Operator: Privately registered:
United States
More flights under this callsign
Pilot: John D. (3811)
Aircraft: CESSNA 172 SKYHAWK
(C172)
More flights by this aircraft type
Origin: KSBD San Bernardino Intl
United States
Destination: KEMT El Monte
United States
More flights between these airports :: More routes between these airports
Route:
File this flight plan on PilotEdge
Remarks: CAT 7
Altitude:
(Current/Filed)
4,500ft
Speed:
(Current/Filed)
115kts
Departed: 08-Nov-18 01:36 PM
Arrived: 08-Nov-18 02:08 PM
Distance/Time
Traveled:
40nm/0:31
Distance/Time
To Go:
Arrived

Flight Plot

Page will automatically refresh every two minutes.


Map Options




Map Legend


Flown Route
Filed Route
Departure Airport
Arrival Airport
Navaid (VOR, NDB)
Fix

Horizontal Profiles

Position Reports

Time Latitude Longitude Heading Altitude Ground
Speed
08-Nov-18 13:19 34.104717 -117.245514 325 1161ft 0kts
08-Nov-18 13:20 34.104717 -117.245514 325 1161ft 0kts
08-Nov-18 13:21 34.104717 -117.245514 325 1161ft 0kts
08-Nov-18 13:22 34.104717 -117.245514 325 1161ft 0kts
08-Nov-18 13:23 34.104771 -117.245443 129 1161ft 0kts
08-Nov-18 13:24 34.104771 -117.245443 129 1161ft 0kts
08-Nov-18 13:25 34.103620 -117.244516 131 1161ft 8kts
08-Nov-18 13:26 34.101909 -117.242527 138 1161ft 5kts
08-Nov-18 13:27 34.099571 -117.242015 179 1161ft 11kts
08-Nov-18 13:28 34.096690 -117.241938 177 1161ft 10kts
08-Nov-18 13:29 34.094484 -117.243791 250 1161ft 12kts
08-Nov-18 13:30 34.093302 -117.247867 249 1161ft 13kts
08-Nov-18 13:31 34.092300 -117.250883 209 1161ft 3kts
08-Nov-18 13:32 34.092108 -117.250945 179 1161ft 0kts
08-Nov-18 13:33 34.092108 -117.250945 179 1161ft 0kts
08-Nov-18 13:34 34.092108 -117.250945 179 1161ft 0kts
08-Nov-18 13:35 34.091629 -117.250778 160 1161ft 0kts
08-Nov-18 13:36 34.091629 -117.250778 160 1161ft 0kts
08-Nov-18 13:37 34.091629 -117.250778 160 1161ft 0kts
08-Nov-18 13:38 34.090966 -117.249517 76 1161ft 16kts
08-Nov-18 13:39 34.095982 -117.229574 76 1514ft 95kts
08-Nov-18 13:40 34.101999 -117.196829 77 2291ft 101kts
08-Nov-18 13:41 34.103808 -117.164135 129 3080ft 101kts
08-Nov-18 13:42 34.077642 -117.156291 171 3846ft 100kts
08-Nov-18 13:43 34.048294 -117.156001 184 4452ft 108kts
08-Nov-18 13:44 34.021192 -117.168589 254 4499ft 111kts
08-Nov-18 13:45 34.012568 -117.204371 257 4499ft 111kts
08-Nov-18 13:46 34.004777 -117.240489 270 4498ft 111kts
08-Nov-18 13:47 34.010204 -117.275932 292 4497ft 107kts
08-Nov-18 13:48 34.019426 -117.309920 292 4497ft 106kts
08-Nov-18 13:49 34.027518 -117.344115 268 4498ft 109kts
08-Nov-18 13:50 34.025292 -117.381507 272 4397ft 112kts
08-Nov-18 13:51 34.024322 -117.418366 276 4396ft 108kts
08-Nov-18 13:52 34.024739 -117.454282 277 4392ft 106kts
08-Nov-18 13:53 34.025164 -117.490090 276 4389ft 106kts
08-Nov-18 13:54 34.025686 -117.525996 276 4386ft 112kts
08-Nov-18 13:55 34.026495 -117.564622 276 4381ft 116kts
08-Nov-18 13:56 34.033180 -117.601760 291 4378ft 113kts
08-Nov-18 13:57 34.043812 -117.637165 296 4378ft 112kts
08-Nov-18 13:58 34.056771 -117.670811 299 4381ft 113kts
08-Nov-18 13:59 34.071452 -117.704735 299 4383ft 114kts
08-Nov-18 14:00 34.086596 -117.738847 303 4385ft 116kts
08-Nov-18 14:01 34.105647 -117.770300 307 4387ft 116kts
08-Nov-18 14:02 34.124396 -117.801229 303 4387ft 107kts
08-Nov-18 14:03 34.138605 -117.832476 294 3938ft 107kts
08-Nov-18 14:04 34.147784 -117.866915 285 3439ft 108kts
08-Nov-18 14:05 34.142340 -117.899865 225 2841ft 117kts
08-Nov-18 14:06 34.122835 -117.931926 239 2044ft 120kts
08-Nov-18 14:07 34.108356 -117.963808 256 2052ft 104kts
08-Nov-18 14:08 34.108925 -117.995527 280 1709ft 94kts
08-Nov-18 14:09 34.102427 -118.025322 216 827ft 89kts
08-Nov-18 14:10 34.084929 -118.035446 205 299ft 44kts
08-Nov-18 14:11 34.083093 -118.035944 61 299ft 7kts
08-Nov-18 14:12 34.086946 -118.033675 24 299ft 17kts
08-Nov-18 14:13 34.088102 -118.032268 206 299ft 0kts

Navigation Log

Ident Type
1. KSBD Airport
2. KEMT Airport